Detall de PIREP

Printer-friendly versionPDF version

[2014/02/16 10:25:00]
Flight IATA:CT0002
Pilot Number:012
Company ICAO:CAT
Aircraft Type:F50/A
PAX:45
Aircraft Registration:PAOB
Departing Airport: LFMN
Destination Airport: LFMT
Alternate Airport:LFML
Online: VATSIM
Route:LANKO G7 MTG Y25 MARRI
Flight Level:F190
No Slew and time accel
No pause
Crash detect
Detect pilot in Cockpit between each 30 and 45 minutes
10:25 Zero fuel Weight: 36573 Lbs, Fuel Weight: 2912 Lbs
10:25 VATSIM:LFMN 160930Z 33003KT 280V020 9999 FEW013 BKN130 14/09 Q1014 NOSIG
10:25 VATSIM:LFMT 160930Z 35008KT 320V030 CAVOK 10/06 Q1017 NOSIG
10:26 VOICE CATALONIAN
10:26 Parking Brakes off
10:31 Take-off
10:31 Take off Weight: 39419 Lbs
10:31 Wind: 358º @ 002 Knots Heading: 045º
10:31 POS N43º 39´ 13´´ E007º 12´ 44´´
10:31 Gear Up: 113 Knots
10:31 Flaps:2 at 114 Knots
10:31 Flaps:1 at 122 Knots
10:31 Flaps:0 at 132 Knots
10:43 TOC
10:43 Fuel Weight: 2386 Lb
10:46 Wind:232º@053 Knots Heading: 260º Ground Speed: 209 Knots Altitude 19068 ft
11:01 Wind:228º@056 Knots Heading: 275º Ground Speed: 223 Knots Altitude 19058 ft
11:08 TOD
11:08 Fuel Weight: 1685 Lb
11:16 Wind:308º@013 Knots Heading: 299º Ground Speed: 230 Knots Altitude 7240 ft
11:20 Flaps:1 at 182 Knots
11:21 Gear Down: 171 Knots
11:21 Flaps:2 at 171 Knots
11:21 Flaps:3 at 130 Knots
11:21 Flaps:4 at 123 Knots
11:23 Flaps:5 at 119 Knots
11:23 Flaps:6 at 114 Knots
11:24 TouchDown:Rate -199 ft/min Speed: 96 Knots
11:24 Flaps:2 at 41 Knots
11:24 Flaps:0 at 41 Knots
11:24 VATSIM:LFMT 161100Z 35006KT 320V030 CAVOK 12/05 Q1016 NOSIG
11:24 Land
11:24 Wind:339º@006 Knots
11:24 Heading: 307º
11:24 Flight Duration: 00:53
11:24 Landing Weight: 38015 Lbs
11:24 POS N43º 34´ 50´´ E003º 58´ 02´´
11:27 Parking brakes on
11:27 Block to Block Duration: 01:01
11:27 Final Fuel: 1415 Lbls
11:27 Spent Fuel: 1496 Lbls
11:27 Flight Length: 174 NM
11:27 TOD Land Length: 50 NM

Exportar CSV

Powered by Drupal - Modified by Danger4k